Aérodrome :
LOGIN :

S'inscrire | Disclaimer

   EN    FR    IT 

 










Légende :    VFR   VFR Marginal   IFR   IFR Intensif   IFR Très Intensif
Visi : 
Plafond : 
>= 8 km
>= 3000ft
5 à 8 km
1000 à 3000 ft
1500m à 5 km
500 à 1000 ft
800 à 1500m
200 à 500 ft
< 800m
< 200 ft
Symboles :   Orages  Brouillard  Fortes neiges  Fortes précipitations  Vent > 20 kt
SIGMETs :   Divers  Orages  Givrage  Turbulence  Onde Orograph.  Cendres Volcan.






- Altitude de l'aérodrome : 463 ft
- Code IATA : QAS


DAOI - Chlef Int.

DERNIER METAR :
  • 261400Z 04010KT 9999 FEW020 SCT025 SCT026 12/12 Q1023

METARs EXPIRÉS :
  • 261300Z 04010KT 9999 FEW020 SCT025 SCT026 12/12 Q1023
  • 261200Z 04012KT 9999 -RA BKN025 SCT026 13/10 Q1024

TAF TAF DAOI
Valide du 26 à 12h jusqu'au 27 à 12h UTC


261100Z 2612/2712 02010KT 9999 SCT015 SCT026
TEMPO 2613/2618 8000 RA BKN026 BKN100
BECMG 2619/2621 VRB02KT 9999 SCT026



MET'MAP, la Météo Aéronautique d'un coup d'oeil ! - Copyright ORBIFLY Décembre 2007 - Disclaimer

ORBIFLY MET'MAP TEAM :

Programmation & Développement : Alexandra Zaïnal
Sur une idée originale de : Baudouin d'Aumeries
Assistance à la programmation : Marc-Olivier Méhu
Soutien technique & logistique : Manuel Goepfert

Contact : metmap@orbifly.com




SOURCES & CREDITS :

   NOAA